createdAt,value
2023-01-04T00:01:53.579Z,5.42
2023-01-04T00:04:20.317Z,5.49
2023-01-04T00:06:46.968Z,5.51
2023-01-04T00:09:14.257Z,5.59
2023-01-04T00:11:40.952Z,5.71
2023-01-04T00:14:07.601Z,5.71
2023-01-04T00:16:34.326Z,5.75
2023-01-04T00:19:01.023Z,5.75
2023-01-04T00:21:30.271Z,5.88
2023-01-04T00:23:59.648Z,5.90
2023-01-04T00:26:31.643Z,5.94
2023-01-04T00:29:06.625Z,5.88
2023-01-04T00:31:34.606Z,5.91
2023-01-04T00:34:03.668Z,6.02
2023-01-04T00:36:31.196Z,6.11
2023-01-04T00:39:10.057Z,6.20
2023-01-04T00:42:01.636Z,6.13
2023-01-04T00:44:30.252Z,6.21
2023-01-04T00:46:57.933Z,6.24
2023-01-04T00:49:24.919Z,6.25
2023-01-04T00:51:51.793Z,6.32
2023-01-04T00:54:18.975Z,6.32
2023-01-04T00:56:46.064Z,6.36
2023-01-04T00:59:14.485Z,6.23
2023-01-04T01:01:42.743Z,6.38
2023-01-04T01:04:12.657Z,6.42
2023-01-04T01:06:39.592Z,6.45
2023-01-04T01:09:06.754Z,6.51
2023-01-04T01:11:36.497Z,6.60
2023-01-04T01:14:03.908Z,6.67
2023-01-04T01:19:17.429Z,6.70
2023-01-04T01:21:44.086Z,6.74
2023-01-04T01:24:16.858Z,6.85
2023-01-04T01:26:43.854Z,6.89
2023-01-04T01:29:11.013Z,6.82
2023-01-04T01:31:37.753Z,6.74
2023-01-04T01:34:04.853Z,6.59
2023-01-04T01:36:31.591Z,6.67
2023-01-04T01:38:58.347Z,6.51
2023-01-04T01:41:30.586Z,6.40
2023-01-04T01:44:00.767Z,6.35
2023-01-04T01:46:49.857Z,6.26
2023-01-04T01:49:33.280Z,6.29
2023-01-04T01:52:05.263Z,6.25
2023-01-04T01:54:43.048Z,6.22
2023-01-04T01:57:13.689Z,6.25
2023-01-04T01:59:42.945Z,6.25
2023-01-04T02:02:11.134Z,6.27
2023-01-04T02:04:41.890Z,6.24
2023-01-04T02:07:12.034Z,6.26
2023-01-04T02:09:39.529Z,6.36
2023-01-04T02:12:10.780Z,6.41
2023-01-04T02:14:37.991Z,6.52
2023-01-04T02:17:07.524Z,6.54
2023-01-04T02:20:16.162Z,6.58
2023-01-04T02:23:20.405Z,6.57
2023-01-04T02:26:08.846Z,6.57
2023-01-04T02:29:14.008Z,6.66
2023-01-04T02:31:41.845Z,6.63
2023-01-04T02:34:47.251Z,6.56
2023-01-04T02:37:20.279Z,6.65
2023-01-04T02:40:08.714Z,6.65
2023-01-04T02:43:20.134Z,6.59
2023-01-04T02:45:54.617Z,6.68
2023-01-04T02:48:39.888Z,6.65
2023-01-04T02:51:29.238Z,6.71
2023-01-04T02:53:59.392Z,6.75
2023-01-04T02:56:46.503Z,6.70
2023-01-04T02:59:55.111Z,6.68
2023-01-04T03:03:04.818Z,6.78
2023-01-04T03:06:09.206Z,6.87
2023-01-04T03:09:05.079Z,6.94
2023-01-04T03:12:00.376Z,6.89
2023-01-04T03:14:33.757Z,6.93
2023-01-04T03:17:11.037Z,7.00
2023-01-04T03:19:51.555Z,6.96
2023-01-04T03:22:48.348Z,6.99
2023-01-04T03:25:34.784Z,7.04
2023-01-04T03:28:20.411Z,6.99
2023-01-04T03:31:31.314Z,7.11
2023-01-04T03:34:16.626Z,7.12
2023-01-04T03:37:00.738Z,7.17
2023-01-04T03:40:03.963Z,7.19
2023-01-04T03:43:02.974Z,7.11
2023-01-04T03:45:59.480Z,7.23
2023-01-04T03:48:37.177Z,7.00
2023-01-04T03:51:27.031Z,7.21
2023-01-04T03:54:04.482Z,7.22
2023-01-04T03:56:32.517Z,7.31
2023-01-04T03:59:00.359Z,7.31
2023-01-04T04:01:28.341Z,7.33
2023-01-04T04:04:14.394Z,7.43
2023-01-04T04:06:59.655Z,7.13
2023-01-04T04:09:26.529Z,7.33
2023-01-04T04:11:53.162Z,7.40
2023-01-04T04:14:19.852Z,7.27
2023-01-04T04:16:46.662Z,7.34
2023-01-04T04:19:13.506Z,7.42
2023-01-04T04:21:40.415Z,7.49
2023-01-04T04:24:07.552Z,7.36
2023-01-04T04:26:34.287Z,7.51
2023-01-04T04:29:00.996Z,7.59
2023-01-04T04:31:27.837Z,7.48
2023-01-04T04:33:54.494Z,7.64
2023-01-04T04:36:21.196Z,7.68
2023-01-04T04:38:47.961Z,7.69
2023-01-04T04:41:33.608Z,7.75
2023-01-04T04:44:00.389Z,7.75
2023-01-04T04:46:27.538Z,7.78
2023-01-04T04:48:54.380Z,7.86
2023-01-04T04:51:21.087Z,7.86
2023-01-04T04:53:49.088Z,7.92
2023-01-04T04:56:16.485Z,7.97
2023-01-04T04:58:43.248Z,8.00
2023-01-04T05:01:10.084Z,8.05
2023-01-04T05:03:38.557Z,8.07
2023-01-04T05:06:05.746Z,8.00
2023-01-04T05:08:36.229Z,8.10
2023-01-04T05:11:13.064Z,8.13
2023-01-04T05:13:40.206Z,8.16
2023-01-04T05:16:08.208Z,8.14
2023-01-04T05:18:35.540Z,8.08
2023-01-04T05:21:02.926Z,8.19
2023-01-04T05:23:29.686Z,8.13
2023-01-04T05:25:59.937Z,8.16
2023-01-04T05:28:26.946Z,8.19
2023-01-04T05:30:55.856Z,8.14
2023-01-04T05:33:26.757Z,8.19
2023-01-04T05:35:54.792Z,8.18
2023-01-04T05:38:22.373Z,8.19
2023-01-04T05:40:50.199Z,8.22
2023-01-04T05:43:18.598Z,8.19
2023-01-04T05:45:49.185Z,8.28
2023-01-04T05:48:16.269Z,8.24
2023-01-04T05:50:43.594Z,8.25
2023-01-04T05:53:10.321Z,8.30
2023-01-04T05:55:37.168Z,8.35
2023-01-04T05:58:04.068Z,8.30
2023-01-04T06:00:30.747Z,8.26
2023-01-04T06:02:57.800Z,8.33
2023-01-04T06:05:25.527Z,8.39
2023-01-04T06:07:52.666Z,8.43
2023-01-04T06:10:20.069Z,8.44
2023-01-04T06:12:47.797Z,8.49
2023-01-04T06:15:14.871Z,8.46
2023-01-04T06:17:41.917Z,8.64
2023-01-04T06:20:10.241Z,8.54
2023-01-04T06:22:37.757Z,8.50
2023-01-04T06:25:05.319Z,8.65
2023-01-04T06:27:32.175Z,8.72
2023-01-04T06:29:58.825Z,8.70
2023-01-04T06:32:25.621Z,8.78
2023-01-04T06:34:52.293Z,8.80
2023-01-04T06:37:19.050Z,8.80
2023-01-04T06:39:45.848Z,8.83
2023-01-04T06:42:32.447Z,8.83
2023-01-04T06:44:59.338Z,8.90
2023-01-04T06:47:26.078Z,8.88
2023-01-04T06:49:53.108Z,8.91
2023-01-04T06:52:20.064Z,8.96
2023-01-04T06:54:46.985Z,8.96
2023-01-04T06:57:13.973Z,9.04
2023-01-04T06:59:40.795Z,9.05
2023-01-04T07:02:07.569Z,8.93
2023-01-04T07:04:34.445Z,9.03
2023-01-04T07:07:02.240Z,9.07
2023-01-04T07:09:28.956Z,9.07
2023-01-04T07:11:55.625Z,9.12
2023-01-04T07:14:22.402Z,9.12
2023-01-04T07:16:49.163Z,9.10
2023-01-04T07:19:15.970Z,9.13
2023-01-04T07:21:42.664Z,9.12
2023-01-04T07:24:09.581Z,9.11
2023-01-04T07:26:36.524Z,9.05
2023-01-04T07:29:15.902Z,9.06
2023-01-04T07:31:51.254Z,9.09
2023-01-04T07:34:20.148Z,9.07
2023-01-04T07:36:47.927Z,9.09
2023-01-04T07:39:14.990Z,9.11
2023-01-04T07:41:42.617Z,9.07
2023-01-04T07:44:11.104Z,9.14
2023-01-04T07:46:38.995Z,9.15
2023-01-04T07:49:09.132Z,9.17
2023-01-04T07:51:39.737Z,9.04
2023-01-04T07:54:06.581Z,9.14
2023-01-04T07:56:33.303Z,9.23
2023-01-04T07:58:59.938Z,9.27
2023-01-04T08:01:27.867Z,9.23
2023-01-04T08:03:54.733Z,9.32
2023-01-04T08:06:21.892Z,9.39
2023-01-04T08:08:49.521Z,9.43
2023-01-04T08:11:18.958Z,9.32
2023-01-04T08:13:46.283Z,9.41
2023-01-04T08:16:40.944Z,9.47
2023-01-04T08:19:17.104Z,9.38
2023-01-04T08:21:44.796Z,9.49
2023-01-04T08:24:22.046Z,9.48
2023-01-04T08:26:48.924Z,9.24
2023-01-04T08:29:15.937Z,9.55
2023-01-04T08:31:42.689Z,9.56
2023-01-04T08:34:10.394Z,9.63
2023-01-04T08:36:46.486Z,9.63
2023-01-04T08:39:13.202Z,9.62
2023-01-04T08:42:06.128Z,9.63
2023-01-04T08:44:39.429Z,9.34
2023-01-04T08:47:06.292Z,9.43
2023-01-04T08:49:33.233Z,9.63
2023-01-04T08:52:00.031Z,9.47
2023-01-04T08:54:26.754Z,9.45
2023-01-04T08:56:53.591Z,9.60
2023-01-04T08:59:20.405Z,9.55
2023-01-04T09:01:47.291Z,9.50
2023-01-04T09:04:14.144Z,9.41
2023-01-04T09:06:40.964Z,9.58
2023-01-04T09:09:07.611Z,9.59
2023-01-04T09:11:35.450Z,9.61
2023-01-04T09:14:07.989Z,9.61
2023-01-04T09:16:37.000Z,9.59
2023-01-04T09:19:04.789Z,9.64
2023-01-04T09:21:31.523Z,9.67
2023-01-04T09:23:59.167Z,9.58
2023-01-04T09:26:26.052Z,9.64
2023-01-04T09:28:54.449Z,9.54
2023-01-04T09:31:26.239Z,9.44
2023-01-04T09:36:39.927Z,9.50
2023-01-04T09:39:06.948Z,9.55
2023-01-04T09:41:58.988Z,9.72
2023-01-04T09:47:30.369Z,9.78
2023-01-04T09:50:05.609Z,9.81
2023-01-04T09:52:40.878Z,9.84
2023-01-04T09:55:41.350Z,9.83
2023-01-04T09:58:27.053Z,9.89
2023-01-04T10:01:07.372Z,9.81
2023-01-04T10:03:39.634Z,9.89
2023-01-04T10:06:10.772Z,9.93
2023-01-04T10:08:37.871Z,9.83
2023-01-04T10:11:23.461Z,9.94
2023-01-04T10:13:56.049Z,9.96
2023-01-04T10:17:20.389Z,9.99
2023-01-04T10:23:01.773Z,10.03
2023-01-04T10:25:53.034Z,10.03
2023-01-04T10:28:29.184Z,10.06
2023-01-04T10:31:39.411Z,10.13
2023-01-04T10:34:30.533Z,10.10
2023-01-04T10:37:00.978Z,10.21
2023-01-04T10:39:36.153Z,10.28
2023-01-04T10:42:35.174Z,10.30
2023-01-04T10:45:22.624Z,10.21
2023-01-04T10:48:07.793Z,10.35
2023-01-04T10:50:42.553Z,10.37
2023-01-04T10:53:15.105Z,10.32
2023-01-04T10:56:24.377Z,10.29
2023-01-04T10:59:02.628Z,10.37
2023-01-04T11:01:38.110Z,10.37
2023-01-04T11:04:20.316Z,10.48
2023-01-04T11:06:54.100Z,10.48
2023-01-04T11:09:33.050Z,10.38
2023-01-04T11:12:01.085Z,10.49
2023-01-04T11:14:35.149Z,10.57
2023-01-04T11:17:06.132Z,10.46
2023-01-04T11:19:34.078Z,10.52
2023-01-04T11:22:03.698Z,10.59
2023-01-04T11:24:34.059Z,10.62
2023-01-04T11:27:13.535Z,10.57
2023-01-04T11:30:01.921Z,10.65
2023-01-04T11:32:37.576Z,10.57
2023-01-04T11:35:04.799Z,10.60
2023-01-04T11:37:41.247Z,10.64
2023-01-04T11:40:21.824Z,10.74
2023-01-04T11:43:10.108Z,10.63
2023-01-04T11:45:37.083Z,10.71
2023-01-04T11:48:10.875Z,10.72
2023-01-04T11:50:48.467Z,10.76
2023-01-04T11:53:30.460Z,10.81
2023-01-04T11:56:21.411Z,10.79
2023-01-04T11:59:09.131Z,10.79
2023-01-04T12:01:38.926Z,10.74
2023-01-04T12:04:16.690Z,10.79
2023-01-04T12:06:43.395Z,10.86
2023-01-04T12:09:15.224Z,10.81
2023-01-04T12:11:46.326Z,10.76
2023-01-04T12:14:22.279Z,10.83
2023-01-04T12:17:07.706Z,10.73
2023-01-04T12:19:36.821Z,10.80
2023-01-04T12:22:05.166Z,10.47
2023-01-04T12:24:35.578Z,10.28
2023-01-04T12:27:04.685Z,10.87
2023-01-04T12:29:43.692Z,10.86
2023-01-04T12:32:13.192Z,10.89
2023-01-04T12:34:39.766Z,10.95
2023-01-04T12:37:07.258Z,10.86
2023-01-04T12:39:44.869Z,10.95
2023-01-04T12:42:16.143Z,10.93
2023-01-04T12:44:51.988Z,11.00
2023-01-04T12:47:37.313Z,10.98
2023-01-04T12:50:12.489Z,10.77
2023-01-04T12:55:43.843Z,10.99
2023-01-04T12:58:44.132Z,10.98
2023-01-04T13:01:29.695Z,10.90
2023-01-04T13:04:05.223Z,10.93
2023-01-04T13:06:42.899Z,10.86
2023-01-04T13:09:23.815Z,10.97
2023-01-04T13:12:20.230Z,11.03
2023-01-04T13:14:55.900Z,10.92
2023-01-04T13:17:25.960Z,10.94
2023-01-04T13:19:52.749Z,10.96
2023-01-04T13:22:28.792Z,11.07
2023-01-04T13:24:59.428Z,11.02
2023-01-04T13:27:27.519Z,11.10
2023-01-04T13:29:54.451Z,11.01
2023-01-04T13:32:27.128Z,11.11
2023-01-04T13:35:02.422Z,10.98
2023-01-04T13:37:38.621Z,10.97
2023-01-04T13:40:19.747Z,11.02
2023-01-04T13:42:50.476Z,10.99
2023-01-04T13:45:35.621Z,10.97
2023-01-04T13:48:06.097Z,10.90
2023-01-04T13:50:40.571Z,10.80
2023-01-04T13:53:20.174Z,10.92
2023-01-04T13:55:51.522Z,11.00
2023-01-04T13:58:24.111Z,11.08
2023-01-04T14:01:15.647Z,10.79
2023-01-04T14:03:46.470Z,11.18
2023-01-04T14:06:28.664Z,11.10
2023-01-04T14:09:04.139Z,11.10
2023-01-04T14:12:05.770Z,11.08
2023-01-04T14:14:52.298Z,11.14
2023-01-04T14:17:23.542Z,11.20
2023-01-04T14:19:59.109Z,11.20
2023-01-04T14:22:45.631Z,11.12
2023-01-04T14:25:30.992Z,11.25
2023-01-04T14:28:27.593Z,11.26
2023-01-04T14:30:54.303Z,11.17
2023-01-04T14:33:26.298Z,11.27
2023-01-04T14:36:07.211Z,11.18
2023-01-04T14:38:45.341Z,11.18
2023-01-04T14:41:49.091Z,11.19
2023-01-04T14:44:20.724Z,11.19
2023-01-04T14:46:53.390Z,11.35
2023-01-04T14:49:22.080Z,11.24
2023-01-04T14:51:57.868Z,11.21
2023-01-04T14:54:25.772Z,11.30
2023-01-04T14:56:56.772Z,11.25
2023-01-04T14:59:24.668Z,11.28
2023-01-04T15:01:56.585Z,11.28
2023-01-04T15:04:24.330Z,11.32
2023-01-04T15:06:57.015Z,11.36
2023-01-04T15:09:24.185Z,11.27
2023-01-04T15:11:51.052Z,11.18
2023-01-04T15:14:18.896Z,11.23
2023-01-04T15:16:45.543Z,11.22
2023-01-04T15:19:12.669Z,11.26
2023-01-04T15:21:41.589Z,11.17
2023-01-04T15:24:09.526Z,11.27
2023-01-04T15:26:36.575Z,11.32
2023-01-04T15:29:06.785Z,11.04
2023-01-04T15:31:38.774Z,11.35
2023-01-04T15:34:06.893Z,11.33
2023-01-04T15:36:35.203Z,11.32
2023-01-04T15:39:01.881Z,11.39
2023-01-04T15:41:46.939Z,11.43
2023-01-04T15:44:13.633Z,11.27
2023-01-04T15:46:40.543Z,11.14
2023-01-04T15:49:09.472Z,11.24
2023-01-04T15:51:38.913Z,11.37
2023-01-04T15:54:05.680Z,11.49
2023-01-04T15:56:32.449Z,11.45
2023-01-04T15:58:59.180Z,11.47
2023-01-04T16:01:25.925Z,11.55
2023-01-04T16:03:54.127Z,11.59
2023-01-04T16:06:21.611Z,11.55
2023-01-04T16:08:50.527Z,11.55
2023-01-04T16:11:23.594Z,11.54
2023-01-04T16:13:52.495Z,11.68
2023-01-04T16:16:21.966Z,11.62
2023-01-04T16:18:51.676Z,11.66
2023-01-04T16:21:22.216Z,11.65
2023-01-04T16:23:55.891Z,11.33
2023-01-04T16:26:30.334Z,11.13
2023-01-04T16:28:57.870Z,11.24
2023-01-04T16:31:25.279Z,11.48
2023-01-04T16:33:54.833Z,11.34
2023-01-04T16:36:21.902Z,11.48
2023-01-04T16:38:48.691Z,11.46
2023-01-04T16:41:17.497Z,11.51
2023-01-04T16:43:53.408Z,11.53
2023-01-04T16:46:25.739Z,11.60
2023-01-04T16:48:55.402Z,11.44
2023-01-04T16:51:24.267Z,11.66
2023-01-04T16:53:51.777Z,11.63
2023-01-04T16:56:21.065Z,11.74
2023-01-04T16:58:51.576Z,11.76
2023-01-04T17:01:23.397Z,11.63
2023-01-04T17:03:53.766Z,11.67
2023-01-04T17:06:23.469Z,11.52
2023-01-04T17:08:52.745Z,11.49
2023-01-04T17:12:11.469Z,11.36
2023-01-04T17:14:13.699Z,11.19
2023-01-04T17:16:41.163Z,11.09
2023-01-04T17:19:07.886Z,11.19
2023-01-04T17:21:35.467Z,11.17
2023-01-04T17:24:03.739Z,11.07
2023-01-04T17:26:32.575Z,11.15
2023-01-04T17:29:01.233Z,11.16
2023-01-04T17:31:31.466Z,11.16
2023-01-04T17:33:58.318Z,11.01
2023-01-04T17:36:25.335Z,10.91
2023-01-04T17:38:52.601Z,11.01
2023-01-04T17:41:27.365Z,11.22
2023-01-04T17:43:57.890Z,11.22
2023-01-04T17:46:25.188Z,11.14
2023-01-04T17:49:17.855Z,11.17
2023-01-04T17:51:40.202Z,11.19
2023-01-04T17:54:08.506Z,11.17
2023-01-04T17:56:37.179Z,11.13
2023-01-04T17:59:07.018Z,11.18
2023-01-04T18:01:34.974Z,11.18
2023-01-04T18:04:03.852Z,11.17
2023-01-04T18:06:33.740Z,11.30
2023-01-04T18:09:01.366Z,11.36
2023-01-04T18:11:28.649Z,11.33
2023-01-04T18:13:55.440Z,11.39
2023-01-04T18:16:26.780Z,11.42
2023-01-04T18:18:57.768Z,11.26
2023-01-04T18:21:31.017Z,11.22
2023-01-04T18:24:34.730Z,10.97
2023-01-04T18:27:20.424Z,11.24
2023-01-04T18:29:48.700Z,11.29
2023-01-04T18:32:22.450Z,11.37
2023-01-04T18:34:55.644Z,10.99
2023-01-04T18:37:22.497Z,10.63
2023-01-04T18:39:49.787Z,11.10
2023-01-04T18:42:17.779Z,10.61
2023-01-04T18:44:49.904Z,10.54
2023-01-04T18:47:20.411Z,10.68
2023-01-04T18:49:51.205Z,11.38
2023-01-04T18:52:18.951Z,11.54
2023-01-04T18:54:48.278Z,11.26
2023-01-04T18:57:18.204Z,11.60
2023-01-04T18:59:50.276Z,11.22
2023-01-04T19:02:19.547Z,11.08
2023-01-04T19:04:46.786Z,11.76
2023-01-04T19:07:13.648Z,11.14
2023-01-04T19:09:42.669Z,11.63
2023-01-04T19:12:09.861Z,10.91
2023-01-04T19:14:48.553Z,10.98
2023-01-04T19:17:26.231Z,11.04
2023-01-04T19:19:57.696Z,11.43
2023-01-04T19:22:26.114Z,11.37
2023-01-04T19:25:16.881Z,11.43
2023-01-04T19:27:55.866Z,11.42
2023-01-04T19:30:42.638Z,11.00
2023-01-04T19:33:13.683Z,11.08
2023-01-04T19:35:49.883Z,11.03
2023-01-04T19:38:23.119Z,10.35
2023-01-04T19:40:57.923Z,10.28
2023-01-04T19:43:24.855Z,10.30
2023-01-04T19:45:51.811Z,10.27
2023-01-04T19:48:19.057Z,9.86
2023-01-04T19:50:46.260Z,10.05
2023-01-04T19:53:24.057Z,9.84
2023-01-04T19:55:51.283Z,9.61
2023-01-04T19:58:18.197Z,9.98
2023-01-04T20:00:54.612Z,10.12
2023-01-04T20:03:22.854Z,9.72
2023-01-04T20:05:50.825Z,10.10
2023-01-04T20:08:18.259Z,9.92
2023-01-04T20:10:45.938Z,10.27
2023-01-04T20:13:12.853Z,10.07
2023-01-04T20:15:42.921Z,10.17
2023-01-04T20:18:13.943Z,9.72
2023-01-04T20:20:43.275Z,9.67
2023-01-04T20:23:11.416Z,9.82
2023-01-04T20:25:47.590Z,10.04
2023-01-04T20:28:15.910Z,10.29
2023-01-04T20:30:49.490Z,10.07
2023-01-04T20:33:16.455Z,10.16
2023-01-04T20:35:44.982Z,10.16
2023-01-04T20:38:12.239Z,10.45
2023-01-04T20:40:39.099Z,10.46
2023-01-04T20:43:25.222Z,10.46
2023-01-04T20:45:52.008Z,10.51
2023-01-04T20:48:18.800Z,10.42
2023-01-04T20:50:45.684Z,10.54
2023-01-04T20:53:13.651Z,10.51
2023-01-04T20:55:41.810Z,10.54
2023-01-04T20:58:09.789Z,10.52
2023-01-04T21:00:39.885Z,10.57
2023-01-04T21:03:08.309Z,10.53
2023-01-04T21:05:40.445Z,10.66
2023-01-04T21:08:07.614Z,10.75
2023-01-04T21:10:35.568Z,10.56
2023-01-04T21:13:03.877Z,10.44
2023-01-04T21:15:31.087Z,10.53
2023-01-04T21:17:58.008Z,10.63
2023-01-04T21:20:25.098Z,10.60
2023-01-04T21:22:51.873Z,10.61
2023-01-04T21:25:19.020Z,10.79
2023-01-04T21:27:45.787Z,10.05
2023-01-04T21:30:12.921Z,10.32
2023-01-04T21:32:39.565Z,10.77
2023-01-04T21:35:06.868Z,10.69
2023-01-04T21:37:33.688Z,10.73
2023-01-04T21:40:00.356Z,10.75
2023-01-04T21:42:27.256Z,10.73
2023-01-04T21:44:54.067Z,10.66
2023-01-04T21:47:20.988Z,10.68
2023-01-04T21:49:47.984Z,10.59
2023-01-04T21:52:14.806Z,10.71
2023-01-04T21:54:41.489Z,10.24
2023-01-04T21:57:08.414Z,10.38
2023-01-04T21:59:35.937Z,10.19
2023-01-04T22:02:03.056Z,9.93
2023-01-04T22:04:30.049Z,9.89
2023-01-04T22:06:56.834Z,9.85
2023-01-04T22:09:23.684Z,9.70
2023-01-04T22:11:51.028Z,9.59
2023-01-04T22:14:18.469Z,9.63
2023-01-04T22:16:45.246Z,9.73
2023-01-04T22:19:13.465Z,9.79
2023-01-04T22:21:40.838Z,9.82
2023-01-04T22:24:10.900Z,9.67
2023-01-04T22:26:37.784Z,9.65
2023-01-04T22:29:04.616Z,9.69
2023-01-04T22:31:31.430Z,9.74
2023-01-04T22:33:58.232Z,9.59
2023-01-04T22:36:25.333Z,9.60
2023-01-04T22:38:53.708Z,9.66
2023-01-04T22:41:22.015Z,9.67
2023-01-04T22:43:54.648Z,9.76
2023-01-04T22:46:21.493Z,9.64
2023-01-04T22:48:48.200Z,9.69
2023-01-04T22:51:17.098Z,9.75
2023-01-04T22:53:44.835Z,9.66
2023-01-04T22:56:19.607Z,9.71
2023-01-04T22:58:53.079Z,9.70
2023-01-04T23:01:22.468Z,9.58
2023-01-04T23:03:51.999Z,9.68
2023-01-04T23:06:19.259Z,9.69
2023-01-04T23:08:46.063Z,9.68
2023-01-04T23:11:16.173Z,9.58
2023-01-04T23:13:43.104Z,9.65
2023-01-04T23:16:14.965Z,9.55
2023-01-04T23:18:42.699Z,9.77
2023-01-04T23:21:09.793Z,9.62
2023-01-04T23:23:36.782Z,9.67
2023-01-04T23:26:08.748Z,9.56
2023-01-04T23:28:37.252Z,9.64
2023-01-04T23:31:10.127Z,9.38
2023-01-04T23:33:37.280Z,9.53
2023-01-04T23:36:15.932Z,9.63
2023-01-04T23:38:44.983Z,9.48
2023-01-04T23:41:12.241Z,9.24
2023-01-04T23:43:39.559Z,9.69
2023-01-04T23:46:15.150Z,9.88
2023-01-04T23:48:42.455Z,9.73
2023-01-04T23:51:11.852Z,9.75
2023-01-04T23:53:38.741Z,9.79
2023-01-04T23:56:08.158Z,9.66
2023-01-04T23:58:34.939Z,9.67
